createdAt,value
2022-08-07T00:00:39.996Z,16.03
2022-08-07T00:01:44.206Z,16.01
2022-08-07T00:02:44.485Z,16.00
2022-08-07T00:03:37.643Z,15.99
2022-08-07T00:04:37.687Z,16.00
2022-08-07T00:05:37.627Z,16.01
2022-08-07T00:06:51.162Z,16.03
2022-08-07T00:07:40.410Z,16.04
2022-08-07T00:08:37.570Z,16.04
2022-08-07T00:09:37.589Z,16.06
2022-08-07T00:10:47.755Z,16.06
2022-08-07T00:11:47.770Z,16.07
2022-08-07T00:12:57.838Z,16.06
2022-08-07T00:13:37.554Z,16.06
2022-08-07T00:14:37.521Z,16.06
2022-08-07T00:15:46.457Z,16.06
2022-08-07T00:16:37.506Z,16.06
2022-08-07T00:17:37.505Z,16.07
2022-08-07T00:18:37.503Z,16.06
2022-08-07T00:20:01.524Z,16.07
2022-08-07T00:20:37.525Z,16.06
2022-08-07T00:21:56.148Z,16.07
2022-08-07T00:22:37.459Z,16.09
2022-08-07T00:23:37.459Z,16.11
2022-08-07T00:24:37.433Z,16.09
2022-08-07T00:25:41.493Z,16.11
2022-08-07T00:26:49.389Z,16.09
2022-08-07T00:27:52.832Z,16.09
2022-08-07T00:28:45.548Z,16.07
2022-08-07T00:29:37.394Z,16.07
2022-08-07T00:30:37.379Z,16.06
2022-08-07T00:31:42.198Z,16.04
2022-08-07T00:32:37.372Z,16.04
2022-08-07T00:33:37.375Z,16.03
2022-08-07T00:34:37.352Z,16.04
2022-08-07T00:35:37.340Z,16.03
2022-08-07T00:36:38.404Z,16.03
2022-08-07T00:37:47.722Z,16.03
2022-08-07T00:38:37.335Z,16.03
2022-08-07T00:39:37.392Z,16.01
2022-08-07T00:40:39.339Z,16.01
2022-08-07T00:41:53.090Z,16.01
2022-08-07T00:42:37.287Z,16.00
2022-08-07T00:43:59.590Z,15.99
2022-08-07T00:44:38.290Z,16.00
2022-08-07T00:45:37.254Z,16.01
2022-08-07T00:46:37.251Z,16.03
2022-08-07T00:48:08.089Z,16.01
2022-08-07T00:48:37.230Z,16.03
2022-08-07T00:50:19.186Z,16.01
2022-08-07T00:50:46.715Z,16.01
2022-08-07T00:51:56.730Z,16.00
2022-08-07T00:52:37.196Z,16.01
2022-08-07T00:53:38.441Z,15.99
2022-08-07T00:54:37.194Z,16.01
2022-08-07T00:56:00.829Z,16.01
2022-08-07T00:56:37.163Z,15.99
2022-08-07T00:57:37.186Z,16.00
2022-08-07T00:58:37.169Z,16.04
2022-08-07T00:59:37.127Z,16.04
2022-08-07T01:00:37.126Z,16.04
2022-08-07T01:01:43.975Z,16.04
2022-08-07T01:02:37.114Z,16.04
2022-08-07T01:03:56.343Z,16.06
2022-08-07T01:04:43.339Z,16.06
2022-08-07T01:05:37.091Z,16.07
2022-08-07T01:06:37.088Z,16.09
2022-08-07T01:07:37.057Z,16.09
2022-08-07T01:08:37.068Z,16.07
2022-08-07T01:10:06.472Z,16.09
2022-08-07T01:10:37.053Z,16.09
2022-08-07T01:12:09.179Z,16.09
2022-08-07T01:12:37.039Z,16.12
2022-08-07T01:13:37.006Z,16.11
2022-08-07T01:14:37.293Z,16.12
2022-08-07T01:16:05.671Z,16.12
2022-08-07T01:16:37.135Z,16.11
2022-08-07T01:17:36.997Z,16.12
2022-08-07T01:18:36.973Z,16.12
2022-08-07T01:19:38.376Z,16.14
2022-08-07T01:20:42.961Z,16.15
2022-08-07T01:21:37.038Z,16.15
2022-08-07T01:22:36.938Z,16.16
2022-08-07T01:23:38.841Z,16.18
2022-08-07T01:24:36.915Z,16.18
2022-08-07T01:25:54.642Z,16.18
2022-08-07T01:26:36.908Z,16.18
2022-08-07T01:27:37.367Z,16.20
2022-08-07T01:28:36.885Z,16.22
2022-08-07T01:29:36.875Z,16.22
2022-08-07T01:30:36.893Z,16.18
2022-08-07T01:31:41.588Z,16.18
2022-08-07T01:32:36.856Z,16.16
2022-08-07T01:33:55.211Z,16.15
2022-08-07T01:34:36.834Z,16.15
2022-08-07T01:35:53.082Z,16.15
2022-08-07T01:36:40.390Z,16.15
2022-08-07T01:37:36.801Z,16.15
2022-08-07T01:38:36.797Z,16.16
2022-08-07T01:39:40.630Z,16.15
2022-08-07T01:40:36.778Z,16.15
2022-08-07T01:41:36.779Z,16.14
2022-08-07T01:42:57.159Z,16.16
2022-08-07T01:43:38.520Z,16.18
2022-08-07T01:44:36.743Z,16.23
2022-08-07T01:45:39.947Z,16.25
2022-08-07T01:46:36.739Z,16.25
2022-08-07T01:48:20.199Z,16.25
2022-08-07T01:48:40.970Z,16.27
2022-08-07T01:49:36.744Z,16.23
2022-08-07T01:50:36.690Z,16.23
2022-08-07T01:52:03.276Z,16.22
2022-08-07T01:52:36.671Z,16.18
2022-08-07T01:54:12.497Z,16.18
2022-08-07T01:54:37.490Z,16.16
2022-08-07T01:55:36.699Z,16.16
2022-08-07T01:56:36.646Z,16.16
2022-08-07T01:58:01.191Z,16.15
2022-08-07T01:58:37.621Z,16.15
2022-08-07T01:59:36.627Z,16.14
2022-08-07T02:00:45.250Z,16.14
2022-08-07T02:01:59.897Z,16.14
2022-08-07T02:03:11.997Z,16.15
2022-08-07T02:03:48.598Z,16.15
2022-08-07T02:04:36.569Z,16.15
2022-08-07T02:05:48.003Z,16.15
2022-08-07T02:06:36.546Z,16.14
2022-08-07T02:07:49.881Z,16.15
2022-08-07T02:08:36.547Z,16.12
2022-08-07T02:09:52.600Z,16.14
2022-08-07T02:10:36.562Z,16.12
2022-08-07T02:12:02.955Z,16.12
2022-08-07T02:12:36.522Z,16.12
2022-08-07T02:13:58.245Z,16.11
2022-08-07T02:14:40.687Z,16.09
2022-08-07T02:15:36.458Z,16.11
2022-08-07T02:16:36.465Z,16.11
2022-08-07T02:17:36.442Z,16.12
2022-08-07T02:18:36.463Z,16.11
2022-08-07T02:20:06.494Z,16.12
2022-08-07T02:20:36.465Z,16.12
2022-08-07T02:21:56.740Z,16.15
2022-08-07T02:22:40.998Z,16.14
2022-08-07T02:23:36.410Z,16.15
2022-08-07T02:24:36.389Z,16.15
2022-08-07T02:26:31.509Z,16.16
2022-08-07T02:26:38.857Z,16.18
2022-08-07T02:27:36.355Z,16.20
2022-08-07T02:28:36.363Z,16.22
2022-08-07T02:29:36.898Z,16.22
2022-08-07T02:30:36.340Z,16.23
2022-08-07T02:31:36.319Z,16.25
2022-08-07T02:32:36.326Z,16.27
2022-08-07T02:34:01.896Z,16.26
2022-08-07T02:34:36.301Z,16.26
2022-08-07T02:36:28.415Z,16.25
2022-08-07T02:36:36.479Z,16.22
2022-08-07T02:37:36.439Z,16.22
2022-08-07T02:38:36.279Z,16.22
2022-08-07T02:39:43.702Z,16.22
2022-08-07T02:40:36.320Z,16.18
2022-08-07T02:41:37.079Z,16.20
2022-08-07T02:42:36.230Z,16.18
2022-08-07T02:43:36.242Z,16.18
2022-08-07T02:44:36.530Z,16.18
2022-08-07T02:46:00.320Z,16.18
2022-08-07T02:46:36.847Z,16.18
2022-08-07T02:47:49.042Z,16.18
2022-08-07T02:48:36.182Z,16.16
2022-08-07T02:49:58.676Z,16.16
2022-08-07T02:50:36.163Z,16.15
2022-08-07T02:51:42.396Z,16.15
2022-08-07T02:52:36.146Z,16.15
2022-08-07T02:53:38.609Z,16.14
2022-08-07T02:54:36.126Z,16.14
2022-08-07T02:56:03.291Z,16.14
2022-08-07T02:56:36.119Z,16.14
2022-08-07T02:57:36.142Z,16.14
2022-08-07T02:58:36.129Z,16.12
2022-08-07T02:59:36.069Z,16.14
2022-08-07T03:00:36.139Z,16.15
2022-08-07T03:01:40.014Z,16.15
2022-08-07T03:02:36.050Z,16.14
2022-08-07T03:03:49.459Z,16.16
2022-08-07T03:04:36.058Z,16.16
2022-08-07T03:05:37.110Z,16.18
2022-08-07T03:06:36.014Z,16.18
2022-08-07T03:08:05.085Z,16.20
2022-08-07T03:08:36.067Z,16.22
2022-08-07T03:09:42.386Z,16.22
2022-08-07T03:10:35.988Z,16.23
2022-08-07T03:11:38.974Z,16.23
2022-08-07T03:12:35.991Z,16.25
2022-08-07T03:13:38.900Z,16.25
2022-08-07T03:14:35.995Z,16.25
2022-08-07T03:15:47.774Z,16.26
2022-08-07T03:16:35.939Z,16.26
2022-08-07T03:17:52.743Z,16.26
2022-08-07T03:18:36.178Z,16.30
2022-08-07T03:19:37.025Z,16.30
2022-08-07T03:20:35.895Z,16.30
2022-08-07T03:21:35.877Z,16.31
2022-08-07T03:22:35.881Z,16.30
2022-08-07T03:24:17.619Z,16.31
2022-08-07T03:24:36.551Z,16.34
2022-08-07T03:25:40.406Z,16.37
2022-08-07T03:26:35.842Z,16.37
2022-08-07T03:27:59.359Z,16.41
2022-08-07T03:28:38.538Z,16.40
2022-08-07T03:29:37.367Z,16.38
2022-08-07T03:30:35.841Z,16.35
2022-08-07T03:31:43.516Z,16.35
2022-08-07T03:32:35.819Z,16.33
2022-08-07T03:33:40.157Z,16.31
2022-08-07T03:34:39.470Z,16.27
2022-08-07T03:35:43.738Z,16.26
2022-08-07T03:36:35.781Z,16.25
2022-08-07T03:37:45.917Z,16.25
2022-08-07T03:38:35.743Z,16.23
2022-08-07T03:39:45.973Z,16.23
2022-08-07T03:40:36.434Z,16.22
2022-08-07T03:41:42.410Z,16.23
2022-08-07T03:42:35.668Z,16.25
2022-08-07T03:43:35.972Z,16.25
2022-08-07T03:44:35.696Z,16.25
2022-08-07T03:45:39.576Z,16.25
2022-08-07T03:46:35.668Z,16.25
2022-08-07T03:47:45.104Z,16.27
2022-08-07T03:49:01.927Z,16.27
2022-08-07T03:49:35.596Z,16.27
2022-08-07T03:50:35.634Z,16.30
2022-08-07T03:51:46.998Z,16.30
2022-08-07T03:52:35.637Z,16.30
2022-08-07T03:54:33.224Z,16.30
2022-08-07T03:54:54.063Z,16.30
2022-08-07T03:55:58.109Z,16.30
2022-08-07T03:56:35.531Z,16.33
2022-08-07T03:58:34.045Z,16.34
2022-08-07T03:59:13.370Z,16.34
2022-08-07T03:59:35.517Z,16.35
2022-08-07T04:00:36.620Z,16.35
2022-08-07T04:01:36.989Z,16.35
2022-08-07T04:02:35.500Z,16.35
2022-08-07T04:03:49.560Z,16.34
2022-08-07T04:04:35.465Z,16.34
2022-08-07T04:05:40.259Z,16.35
2022-08-07T04:06:37.238Z,16.35
2022-08-07T04:07:41.830Z,16.35
2022-08-07T04:08:35.446Z,16.37
2022-08-07T04:09:44.860Z,16.37
2022-08-07T04:10:35.421Z,16.38
2022-08-07T04:12:21.369Z,16.37
2022-08-07T04:12:35.433Z,16.38
2022-08-07T04:14:10.138Z,16.40
2022-08-07T04:14:46.242Z,16.38
2022-08-07T04:15:35.368Z,16.40
2022-08-07T04:16:35.368Z,16.38
2022-08-07T04:18:30.770Z,16.38
2022-08-07T04:19:03.942Z,16.38
2022-08-07T04:19:51.996Z,16.40
2022-08-07T04:20:35.442Z,16.37
2022-08-07T04:21:35.316Z,16.37
2022-08-07T04:22:35.308Z,16.37
2022-08-07T04:23:43.471Z,16.37
2022-08-07T04:24:39.009Z,16.33
2022-08-07T04:25:39.047Z,16.31
2022-08-07T04:26:35.298Z,16.30
2022-08-07T04:27:44.259Z,16.26
2022-08-07T04:28:35.311Z,16.25
2022-08-07T04:29:48.909Z,16.23
2022-08-07T04:30:39.410Z,16.23
2022-08-07T04:31:39.134Z,16.22
2022-08-07T04:32:35.371Z,16.20
2022-08-07T04:33:35.366Z,16.18
2022-08-07T04:34:36.546Z,16.18
2022-08-07T04:35:35.726Z,16.18
2022-08-07T04:36:35.189Z,16.16
2022-08-07T04:37:52.892Z,16.20
2022-08-07T04:38:35.177Z,16.18
2022-08-07T04:39:35.787Z,16.18
2022-08-07T04:40:35.170Z,16.20
2022-08-07T04:41:36.825Z,16.18
2022-08-07T04:42:35.147Z,16.16
2022-08-07T04:44:10.648Z,16.16
2022-08-07T04:44:35.140Z,16.15
2022-08-07T04:46:00.295Z,16.14
2022-08-07T04:46:35.873Z,16.12
2022-08-07T04:48:00.902Z,16.14
2022-08-07T04:48:35.084Z,16.16
2022-08-07T04:49:37.795Z,16.18
2022-08-07T04:50:35.062Z,16.22
2022-08-07T04:51:35.053Z,16.22
2022-08-07T04:52:35.079Z,16.20
2022-08-07T04:54:01.771Z,16.20
2022-08-07T04:54:35.050Z,16.18
2022-08-07T04:58:24.426Z,16.23
2022-08-07T05:00:09.949Z,16.31
2022-08-07T05:00:31.099Z,16.33
2022-08-07T05:01:01.625Z,16.35
2022-08-07T05:02:01.575Z,16.34
2022-08-07T05:03:01.558Z,16.34
2022-08-07T05:04:07.674Z,16.31
2022-08-07T05:05:01.538Z,16.33
2022-08-07T05:06:01.546Z,16.33
2022-08-07T05:07:09.625Z,16.33
2022-08-07T05:08:01.517Z,16.33
2022-08-07T05:09:02.475Z,16.38
2022-08-07T05:10:01.490Z,16.41
2022-08-07T05:11:02.594Z,16.41
2022-08-07T05:12:02.604Z,16.41
2022-08-07T05:14:44.487Z,16.37
2022-08-07T05:15:03.440Z,16.34
2022-08-07T05:15:09.583Z,16.33
2022-08-07T05:16:07.838Z,16.31
2022-08-07T05:17:11.887Z,16.26
2022-08-07T05:18:08.853Z,16.25
2022-08-07T05:19:07.811Z,16.22
2022-08-07T05:20:09.805Z,16.20
2022-08-07T05:21:07.796Z,16.22
2022-08-07T05:22:07.787Z,16.22
2022-08-07T05:23:15.730Z,16.18
2022-08-07T05:24:07.760Z,16.15
2022-08-07T05:25:08.758Z,16.16
2022-08-07T05:26:13.625Z,16.14
2022-08-07T05:27:07.753Z,16.14
2022-08-07T05:28:20.589Z,16.12
2022-08-07T05:29:07.719Z,16.11
2022-08-07T05:30:07.698Z,16.12
2022-08-07T05:31:07.728Z,16.12
2022-08-07T05:32:07.684Z,16.12
2022-08-07T05:33:07.672Z,16.14
2022-08-07T05:34:10.732Z,16.14
2022-08-07T05:35:07.665Z,16.14
2022-08-07T05:36:07.653Z,16.14
2022-08-07T05:37:07.655Z,16.15
2022-08-07T05:38:08.332Z,16.16
2022-08-07T05:40:05.863Z,16.16
2022-08-07T05:40:20.588Z,16.16
2022-08-07T05:41:14.234Z,16.18
2022-08-07T05:42:12.408Z,16.16
2022-08-07T05:43:10.591Z,16.15
2022-08-07T05:44:12.673Z,16.16
2022-08-07T05:45:25.963Z,16.16
2022-08-07T05:46:07.588Z,16.15
2022-08-07T05:47:17.833Z,16.18
2022-08-07T05:48:07.867Z,16.20
2022-08-07T05:49:11.814Z,16.20
2022-08-07T05:50:07.529Z,16.23
2022-08-07T05:51:07.519Z,16.27
2022-08-07T05:52:07.527Z,16.31
2022-08-07T05:53:07.503Z,16.33
2022-08-07T05:54:30.583Z,16.34
2022-08-07T05:55:10.996Z,16.35
2022-08-07T05:56:07.472Z,16.34
2022-08-07T05:57:07.462Z,16.34
2022-08-07T05:58:07.481Z,16.30
2022-08-07T05:59:07.449Z,16.27
2022-08-07T06:00:07.435Z,16.25
2022-08-07T06:01:10.839Z,16.25
2022-08-07T06:02:07.467Z,16.18
2022-08-07T06:03:07.446Z,16.18
2022-08-07T06:04:07.399Z,16.18
2022-08-07T06:05:07.429Z,16.18
2022-08-07T06:06:07.385Z,16.18
2022-08-07T06:07:07.379Z,16.18
2022-08-07T06:08:30.316Z,16.20
2022-08-07T06:09:07.362Z,16.20
2022-08-07T06:10:11.320Z,16.18
2022-08-07T06:11:07.351Z,16.22
2022-08-07T06:12:07.367Z,16.20
2022-08-07T06:13:07.338Z,16.20
2022-08-07T06:14:12.719Z,16.18
2022-08-07T06:15:07.330Z,16.16
2022-08-07T06:16:07.291Z,16.18
2022-08-07T06:17:07.519Z,16.18
2022-08-07T06:18:07.351Z,16.18
2022-08-07T06:19:07.272Z,16.20
2022-08-07T06:20:12.383Z,16.20
2022-08-07T06:22:14.300Z,16.22
2022-08-07T06:22:27.383Z,16.23
2022-08-07T06:23:46.826Z,16.25
2022-08-07T06:24:55.604Z,16.26
2022-08-07T06:25:10.275Z,16.27
2022-08-07T06:26:07.206Z,16.31
2022-08-07T06:27:07.192Z,16.33
2022-08-07T06:28:07.515Z,16.38
2022-08-07T06:29:07.176Z,16.40
2022-08-07T06:30:07.159Z,16.41
2022-08-07T06:31:07.196Z,16.45
2022-08-07T06:32:07.171Z,16.48
2022-08-07T06:33:15.626Z,16.48
2022-08-07T06:34:07.147Z,16.45
2022-08-07T06:35:17.766Z,16.49
2022-08-07T06:36:13.989Z,16.50
2022-08-07T06:37:07.111Z,16.52
2022-08-07T06:38:08.301Z,16.52
2022-08-07T06:40:15.722Z,16.50
2022-08-07T06:40:24.669Z,16.50
2022-08-07T06:41:07.177Z,16.50
2022-08-07T06:42:07.136Z,16.50
2022-08-07T06:43:07.251Z,16.53
2022-08-07T06:44:10.849Z,16.55
2022-08-07T06:45:07.034Z,16.59
2022-08-07T06:46:11.605Z,16.62
2022-08-07T06:47:12.181Z,16.65
2022-08-07T06:48:07.016Z,16.68
2022-08-07T06:49:07.010Z,16.68
2022-08-07T06:50:07.056Z,16.68
2022-08-07T06:51:08.201Z,16.68
2022-08-07T06:52:07.563Z,16.70
2022-08-07T06:53:06.963Z,16.71
2022-08-07T06:55:34.503Z,16.73
2022-08-07T06:56:01.431Z,16.73
2022-08-07T06:56:07.495Z,16.75
2022-08-07T06:57:07.075Z,16.77
2022-08-07T06:58:10.222Z,16.78
2022-08-07T07:00:13.121Z,16.80
2022-08-07T07:00:21.591Z,16.83
2022-08-07T07:01:07.107Z,16.86
2022-08-07T07:02:07.113Z,16.88
2022-08-07T07:03:10.928Z,16.90
2022-08-07T07:04:28.221Z,16.92
2022-08-07T07:05:07.018Z,16.92
2022-08-07T07:06:11.499Z,16.95
2022-08-07T07:07:10.811Z,16.95
2022-08-07T07:08:10.045Z,16.96
2022-08-07T07:09:06.971Z,16.93
2022-08-07T07:10:06.966Z,16.90
2022-08-07T07:11:14.129Z,16.92
2022-08-07T07:12:15.616Z,16.93
2022-08-07T07:13:06.936Z,16.92
2022-08-07T07:14:08.263Z,16.92
2022-08-07T07:15:08.658Z,16.92
2022-08-07T07:16:06.899Z,16.92
2022-08-07T07:17:06.891Z,16.92
2022-08-07T07:18:06.889Z,16.92
2022-08-07T07:19:54.806Z,16.92
2022-08-07T07:20:06.888Z,16.92
2022-08-07T07:21:13.553Z,16.93
2022-08-07T07:22:33.798Z,16.93
2022-08-07T07:24:08.821Z,16.92
2022-08-07T07:24:16.688Z,16.92
2022-08-07T07:26:31.224Z,16.90
2022-08-07T07:26:40.703Z,16.90
2022-08-07T07:27:06.851Z,16.89
2022-08-07T07:28:29.487Z,16.90
2022-08-07T07:29:39.792Z,16.90
2022-08-07T07:30:09.979Z,16.90
2022-08-07T07:31:07.062Z,16.90
2022-08-07T07:32:06.766Z,16.92
2022-08-07T07:33:06.750Z,16.93
2022-08-07T07:34:06.738Z,16.93
2022-08-07T07:35:06.732Z,16.92
2022-08-07T07:36:13.094Z,16.92
2022-08-07T07:37:22.046Z,16.92
2022-08-07T07:38:06.987Z,16.93
2022-08-07T07:39:06.754Z,16.93
2022-08-07T07:40:10.366Z,16.96
2022-08-07T07:41:08.735Z,16.98
2022-08-07T07:42:13.760Z,16.99
2022-08-07T07:43:15.099Z,17.00
2022-08-07T07:44:16.949Z,17.00
2022-08-07T07:45:06.661Z,17.03
2022-08-07T07:46:40.593Z,17.03
2022-08-07T07:47:16.035Z,17.04
2022-08-07T07:48:06.639Z,17.06
2022-08-07T07:50:15.872Z,17.07
2022-08-07T07:50:40.379Z,17.07
2022-08-07T07:51:08.032Z,17.07
2022-08-07T07:52:06.580Z,17.08
2022-08-07T07:53:13.692Z,17.10
2022-08-07T07:54:06.598Z,17.11
2022-08-07T07:55:06.558Z,17.10
2022-08-07T07:56:06.545Z,17.10
2022-08-07T07:57:06.567Z,17.08
2022-08-07T07:58:06.523Z,17.07
2022-08-07T07:59:06.545Z,17.07
2022-08-07T08:00:06.523Z,17.06
2022-08-07T08:02:01.812Z,17.06
2022-08-07T08:02:10.707Z,17.07
2022-08-07T08:03:08.411Z,17.04
2022-08-07T08:04:11.268Z,17.03
2022-08-07T08:05:14.260Z,17.06
2022-08-07T08:06:06.472Z,17.04
2022-08-07T08:07:07.729Z,17.03
2022-08-07T08:08:06.433Z,17.00
2022-08-07T08:09:06.483Z,17.00
2022-08-07T08:10:06.426Z,16.99
2022-08-07T08:11:08.645Z,17.00
2022-08-07T08:12:06.421Z,17.00
2022-08-07T08:13:06.397Z,17.03
2022-08-07T08:14:06.398Z,17.06
2022-08-07T08:15:06.877Z,17.06
2022-08-07T08:16:06.365Z,17.07
2022-08-07T08:17:55.655Z,17.08
2022-08-07T08:18:17.429Z,17.08
2022-08-07T08:19:17.238Z,17.11
2022-08-07T08:20:22.317Z,17.13
2022-08-07T08:21:07.606Z,17.14
2022-08-07T08:22:06.311Z,17.17
2022-08-07T08:23:08.162Z,17.22
2022-08-07T08:24:06.307Z,17.25
2022-08-07T08:25:25.056Z,17.28
2022-08-07T08:26:07.289Z,17.29
2022-08-07T08:27:09.555Z,17.32
2022-08-07T08:28:06.267Z,17.32
2022-08-07T08:29:06.275Z,17.36
2022-08-07T08:30:06.245Z,17.41
2022-08-07T08:31:06.235Z,17.40
2022-08-07T08:32:17.826Z,17.40
2022-08-07T08:33:15.138Z,17.40
2022-08-07T08:34:06.273Z,17.40
2022-08-07T08:35:06.220Z,17.41
2022-08-07T08:36:13.756Z,17.41
2022-08-07T08:37:09.997Z,17.43
2022-08-07T08:38:06.305Z,17.43
2022-08-07T08:39:06.517Z,17.41
2022-08-07T08:40:06.201Z,17.41
2022-08-07T08:41:06.156Z,17.41
2022-08-07T08:42:06.162Z,17.40
2022-08-07T08:43:06.132Z,17.40
2022-08-07T08:44:06.191Z,17.41
2022-08-07T08:45:06.146Z,17.40
2022-08-07T08:46:06.109Z,17.40
2022-08-07T08:47:06.121Z,17.40
2022-08-07T08:48:06.194Z,17.41
2022-08-07T08:49:06.075Z,17.43
2022-08-07T08:50:06.231Z,17.43
2022-08-07T08:51:14.721Z,17.44
2022-08-07T08:52:14.009Z,17.46
2022-08-07T08:53:06.048Z,17.44
2022-08-07T08:54:06.077Z,17.40
2022-08-07T08:55:07.891Z,17.38
2022-08-07T08:56:06.011Z,17.36
2022-08-07T08:57:06.013Z,17.35
2022-08-07T08:58:06.014Z,17.38
2022-08-07T08:59:06.658Z,17.40
2022-08-07T09:00:06.006Z,17.44
2022-08-07T09:01:15.179Z,17.47
2022-08-07T09:02:08.929Z,17.51
2022-08-07T09:03:07.673Z,17.62
2022-08-07T09:04:15.331Z,17.64
2022-08-07T09:05:05.945Z,17.70
2022-08-07T09:06:05.928Z,17.74
2022-08-07T09:07:05.923Z,17.78
2022-08-07T09:08:05.908Z,17.82
2022-08-07T09:09:13.378Z,17.87
2022-08-07T09:10:05.905Z,17.87
2022-08-07T09:11:05.897Z,17.88
2022-08-07T09:12:30.644Z,17.88
2022-08-07T09:13:05.884Z,17.89
2022-08-07T09:14:05.862Z,17.91
2022-08-07T09:16:20.631Z,17.91
2022-08-07T09:16:30.419Z,17.92
2022-08-07T09:17:05.829Z,17.95
2022-08-07T09:18:11.424Z,17.99
2022-08-07T09:19:27.119Z,18.00
2022-08-07T09:20:09.442Z,18.04
2022-08-07T09:21:05.806Z,18.09
2022-08-07T09:22:22.991Z,18.13
2022-08-07T09:24:55.457Z,18.17
2022-08-07T09:25:11.892Z,18.19
2022-08-07T09:25:44.443Z,18.19
2022-08-07T09:26:47.704Z,18.22
2022-08-07T09:27:59.832Z,18.22
2022-08-07T09:30:05.813Z,18.22
2022-08-07T09:30:12.727Z,18.25
2022-08-07T09:30:46.433Z,18.25
2022-08-07T09:31:48.667Z,18.27
2022-08-07T09:32:44.372Z,18.29
2022-08-07T09:33:57.538Z,18.29
2022-08-07T09:34:44.357Z,18.29
2022-08-07T09:36:03.404Z,18.29
2022-08-07T09:36:49.537Z,18.28
2022-08-07T09:37:48.329Z,18.29
2022-08-07T09:38:53.505Z,18.31
2022-08-07T09:39:54.115Z,18.33
2022-08-07T09:40:44.309Z,18.33
2022-08-07T09:41:59.094Z,18.36
2022-08-07T09:42:45.434Z,18.37
2022-08-07T09:44:06.470Z,18.40
2022-08-07T09:44:58.735Z,18.43
2022-08-07T09:47:49.623Z,18.47
2022-08-07T09:48:11.704Z,18.50
2022-08-07T09:48:19.079Z,18.57
2022-08-07T09:50:02.272Z,18.62
2022-08-07T09:50:18.895Z,18.68
2022-08-07T09:52:15.901Z,18.72
2022-08-07T09:52:38.005Z,18.76
2022-08-07T09:53:15.190Z,18.79
2022-08-07T09:54:16.420Z,18.80
2022-08-07T09:55:17.380Z,18.80
2022-08-07T09:56:19.873Z,18.77
2022-08-07T09:57:15.153Z,18.77
2022-08-07T09:58:15.173Z,18.74
2022-08-07T09:59:15.120Z,18.77
2022-08-07T10:00:15.118Z,18.74
2022-08-07T10:01:51.943Z,18.74
2022-08-07T10:02:15.380Z,18.74
2022-08-07T10:04:05.051Z,18.76
2022-08-07T10:04:16.943Z,18.86
2022-08-07T10:05:15.173Z,18.94
2022-08-07T10:06:17.416Z,19.01
2022-08-07T10:07:25.734Z,19.10
2022-08-07T10:08:15.105Z,19.17
2022-08-07T10:09:15.477Z,19.18
2022-08-07T10:10:15.072Z,19.20
2022-08-07T10:11:59.391Z,19.21
2022-08-07T10:12:21.389Z,19.20
2022-08-07T10:13:29.584Z,19.21
2022-08-07T10:14:15.017Z,19.23
2022-08-07T10:15:18.369Z,19.28
2022-08-07T10:16:14.972Z,19.28
2022-08-07T10:17:16.823Z,19.29
2022-08-07T10:18:15.062Z,19.28
2022-08-07T10:19:14.969Z,19.28
2022-08-07T10:20:14.961Z,19.28
2022-08-07T10:21:50.405Z,19.32
2022-08-07T10:22:17.434Z,19.38
2022-08-07T10:23:14.947Z,19.42
2022-08-07T10:24:18.641Z,19.43
2022-08-07T10:25:14.909Z,19.50
2022-08-07T10:26:14.909Z,19.53
2022-08-07T10:27:15.667Z,19.58
2022-08-07T10:28:14.933Z,19.63
2022-08-07T10:29:14.880Z,19.63
2022-08-07T10:30:14.915Z,19.69
2022-08-07T10:31:14.856Z,19.75
2022-08-07T10:32:36.447Z,19.84
2022-08-07T10:34:05.128Z,19.91
2022-08-07T10:34:18.505Z,20.00
2022-08-07T10:35:20.234Z,20.12
2022-08-07T10:36:14.867Z,20.21
2022-08-07T10:37:14.857Z,20.33
2022-08-07T10:38:36.168Z,20.41
2022-08-07T10:39:14.948Z,20.47
2022-08-07T10:40:14.946Z,20.54
2022-08-07T10:41:47.306Z,20.62
2022-08-07T10:42:20.794Z,20.64
2022-08-07T10:43:14.760Z,20.71
2022-08-07T10:44:14.762Z,20.76
2022-08-07T10:45:14.763Z,20.80
2022-08-07T10:46:14.817Z,20.83
2022-08-07T10:47:14.710Z,20.84
2022-08-07T10:48:14.743Z,20.84
2022-08-07T10:49:14.696Z,20.84
2022-08-07T10:50:15.190Z,20.86
2022-08-07T10:51:16.330Z,20.87
2022-08-07T10:52:14.672Z,20.90
2022-08-07T10:53:21.719Z,20.87
2022-08-07T10:54:14.654Z,20.89
2022-08-07T10:55:32.679Z,20.91
2022-08-07T10:56:31.065Z,20.90
2022-08-07T10:57:15.417Z,20.89
2022-08-07T10:58:14.614Z,20.86
2022-08-07T10:59:14.633Z,20.83
2022-08-07T11:02:12.543Z,20.71
2022-08-07T11:03:03.727Z,20.66
2022-08-07T11:04:16.454Z,20.66
2022-08-07T11:05:10.521Z,20.69
2022-08-07T11:06:04.997Z,20.72
2022-08-07T11:07:03.630Z,20.74
2022-08-07T11:08:03.848Z,20.74
2022-08-07T11:09:03.614Z,20.76
2022-08-07T11:10:07.390Z,20.79
2022-08-07T11:11:03.621Z,20.81
2022-08-07T11:12:03.593Z,20.86
2022-08-07T11:13:03.583Z,20.96
2022-08-07T11:14:57.249Z,20.99
2022-08-07T11:15:09.601Z,21.04
2022-08-07T11:16:03.564Z,21.06
2022-08-07T11:17:07.268Z,21.09
2022-08-07T11:18:04.554Z,21.17
2022-08-07T11:19:03.519Z,21.26
2022-08-07T11:20:03.600Z,21.30
2022-08-07T11:21:03.509Z,21.39
2022-08-07T11:22:03.543Z,21.48
2022-08-07T11:23:03.487Z,21.54
2022-08-07T11:24:03.486Z,21.56
2022-08-07T11:25:06.582Z,21.59
2022-08-07T11:26:06.273Z,21.57
2022-08-07T11:27:03.463Z,21.54
2022-08-07T11:28:04.090Z,21.54
2022-08-07T11:29:05.714Z,21.54
2022-08-07T11:30:17.663Z,21.51
2022-08-07T11:31:03.416Z,21.46
2022-08-07T11:32:07.957Z,21.41
2022-08-07T11:33:14.018Z,21.42
2022-08-07T11:34:03.386Z,21.30
2022-08-07T11:35:03.445Z,21.20
2022-08-07T11:36:06.912Z,21.08
2022-08-07T11:37:03.743Z,21.04
2022-08-07T11:38:12.363Z,21.01
2022-08-07T11:39:03.414Z,21.02
2022-08-07T11:40:03.789Z,20.99
2022-08-07T11:41:03.438Z,21.01
2022-08-07T11:42:03.472Z,21.01
2022-08-07T11:43:03.308Z,21.05
2022-08-07T11:44:12.048Z,21.01
2022-08-07T11:45:03.572Z,21.02
2022-08-07T11:46:03.309Z,20.99
2022-08-07T11:47:03.260Z,21.01
2022-08-07T11:48:06.119Z,20.99
2022-08-07T11:49:50.751Z,20.96
2022-08-07T11:50:35.386Z,20.96
2022-08-07T11:51:03.221Z,20.90
2022-08-07T11:52:03.221Z,20.68
2022-08-07T11:53:05.169Z,20.56
2022-08-07T11:54:09.773Z,20.50
2022-08-07T11:55:03.190Z,20.43
2022-08-07T11:56:09.480Z,20.43
2022-08-07T11:57:03.176Z,20.39
2022-08-07T11:58:03.310Z,20.33
2022-08-07T11:59:03.159Z,20.30
2022-08-07T12:00:10.778Z,20.30
2022-08-07T12:01:04.333Z,20.21
2022-08-07T12:02:03.195Z,20.24
2022-08-07T12:03:03.178Z,20.28
2022-08-07T12:04:03.125Z,20.38
2022-08-07T12:05:03.087Z,20.47
2022-08-07T12:06:03.103Z,20.53
2022-08-07T12:07:09.041Z,20.58
2022-08-07T12:08:03.627Z,20.62
2022-08-07T12:09:03.061Z,20.65
2022-08-07T12:10:05.831Z,20.65
2022-08-07T12:11:20.702Z,20.62
2022-08-07T12:12:09.122Z,20.59
2022-08-07T12:13:03.043Z,20.58
2022-08-07T12:14:03.052Z,20.59
2022-08-07T12:15:03.055Z,20.61
2022-08-07T12:16:06.705Z,20.59
2022-08-07T12:17:02.994Z,20.62
2022-08-07T12:18:08.074Z,20.64
2022-08-07T12:19:02.979Z,20.62
2022-08-07T12:20:09.460Z,20.61
2022-08-07T12:21:02.955Z,20.64
2022-08-07T12:22:39.401Z,20.69
2022-08-07T12:23:02.943Z,20.76
2022-08-07T12:24:06.633Z,20.81
2022-08-07T12:25:07.848Z,20.89
2022-08-07T12:26:22.905Z,20.89
2022-08-07T12:27:02.903Z,20.87
2022-08-07T12:28:08.532Z,20.89
2022-08-07T12:29:02.886Z,20.93
2022-08-07T12:30:02.907Z,20.91
2022-08-07T12:31:02.934Z,20.96
2022-08-07T12:32:04.628Z,20.96
2022-08-07T12:33:02.840Z,21.01
2022-08-07T12:34:04.053Z,21.05
2022-08-07T12:35:02.824Z,21.09
2022-08-07T12:36:02.861Z,21.14
2022-08-07T12:37:08.768Z,21.21
2022-08-07T12:38:10.857Z,21.29
2022-08-07T12:39:02.857Z,21.35
2022-08-07T12:40:02.928Z,21.41
2022-08-07T12:41:02.886Z,21.48
2022-08-07T12:42:02.851Z,21.54
2022-08-07T12:43:02.931Z,21.61
2022-08-07T12:44:06.364Z,21.69
2022-08-07T12:45:04.432Z,21.76
2022-08-07T12:46:02.783Z,21.85
2022-08-07T12:47:02.713Z,21.98
2022-08-07T12:48:02.766Z,22.06
2022-08-07T12:49:10.105Z,22.17
2022-08-07T12:50:04.852Z,22.23
2022-08-07T12:51:17.103Z,22.28
2022-08-07T12:52:13.841Z,22.31
2022-08-07T12:53:05.283Z,22.34
2022-08-07T12:54:36.858Z,22.39
2022-08-07T12:55:05.202Z,22.41
2022-08-07T12:56:04.042Z,22.49
2022-08-07T12:57:07.165Z,22.52
2022-08-07T12:58:02.896Z,22.52